createdAt,value
2022-09-11T00:01:14.711Z,10.05
2022-09-11T00:03:43.293Z,10.04
2022-09-11T00:06:12.629Z,10.03
2022-09-11T00:08:40.795Z,10.06
2022-09-11T00:11:13.767Z,10.05
2022-09-11T00:13:40.996Z,10.09
2022-09-11T00:16:18.007Z,10.10
2022-09-11T00:18:44.881Z,10.05
2022-09-11T00:21:11.507Z,10.01
2022-09-11T00:23:38.193Z,9.94
2022-09-11T00:26:05.076Z,9.86
2022-09-11T00:28:32.175Z,9.87
2022-09-11T00:31:12.457Z,9.88
2022-09-11T00:33:39.981Z,9.91
2022-09-11T00:36:10.871Z,9.91
2022-09-11T00:38:38.277Z,9.92
2022-09-11T00:41:10.184Z,9.94
2022-09-11T00:43:53.901Z,9.92
2022-09-11T00:46:22.020Z,9.93
2022-09-11T00:48:50.099Z,9.91
2022-09-11T00:51:28.367Z,9.88
2022-09-11T00:53:57.857Z,9.91
2022-09-11T00:56:29.273Z,9.90
2022-09-11T00:58:57.347Z,9.90
2022-09-11T01:01:24.045Z,9.87
2022-09-11T01:03:51.300Z,9.90
2022-09-11T01:06:21.050Z,9.90
2022-09-11T01:08:47.714Z,9.88
2022-09-11T01:11:42.035Z,9.88
2022-09-11T01:14:36.980Z,9.87
2022-09-11T01:17:26.680Z,9.73
2022-09-11T01:20:28.252Z,9.73
2022-09-11T01:23:22.744Z,9.66
2022-09-11T01:26:01.473Z,9.65
2022-09-11T01:28:44.308Z,9.65
2022-09-11T01:31:16.270Z,9.68
2022-09-11T01:33:48.022Z,9.72
2022-09-11T01:36:22.638Z,9.75
2022-09-11T01:39:02.392Z,9.80
2022-09-11T01:41:32.386Z,9.75
2022-09-11T01:44:08.897Z,9.69
2022-09-11T01:46:41.817Z,9.70
2022-09-11T01:49:17.987Z,9.64
2022-09-11T01:51:49.706Z,9.64
2022-09-11T01:54:19.796Z,9.57
2022-09-11T01:57:06.203Z,9.47
2022-09-11T01:59:49.920Z,9.52
2022-09-11T02:02:22.498Z,9.53
2022-09-11T02:04:57.675Z,9.56
2022-09-11T02:07:33.154Z,9.56
2022-09-11T02:10:14.730Z,9.56
2022-09-11T02:12:47.762Z,9.55
2022-09-11T02:15:16.043Z,9.49
2022-09-11T02:17:54.138Z,9.48
2022-09-11T02:20:21.160Z,9.39
2022-09-11T02:22:49.104Z,9.41
2022-09-11T02:25:16.331Z,9.45
2022-09-11T02:27:43.290Z,9.50
2022-09-11T02:30:10.974Z,9.54
2022-09-11T02:32:41.372Z,9.46
2022-09-11T02:35:10.305Z,9.50
2022-09-11T02:38:05.204Z,9.56
2022-09-11T02:41:01.643Z,9.60
2022-09-11T02:43:49.966Z,9.65
2022-09-11T02:46:25.586Z,9.68
2022-09-11T02:49:07.936Z,9.52
2022-09-11T02:51:53.288Z,9.53
2022-09-11T02:54:40.453Z,9.46
2022-09-11T02:57:26.675Z,9.48
2022-09-11T03:00:00.335Z,9.50
2022-09-11T03:02:29.176Z,9.49
2022-09-11T03:04:56.786Z,9.49
2022-09-11T03:07:25.366Z,9.40
2022-09-11T03:09:52.724Z,9.46
2022-09-11T03:12:19.639Z,9.44
2022-09-11T03:14:46.271Z,9.40
2022-09-11T03:17:13.566Z,9.42
2022-09-11T03:19:41.243Z,9.48
2022-09-11T03:22:07.872Z,9.51
2022-09-11T03:24:34.644Z,9.44
2022-09-11T03:27:01.520Z,9.47
2022-09-11T03:29:28.218Z,9.46
2022-09-11T03:31:54.895Z,9.46
2022-09-11T03:34:22.938Z,9.49
2022-09-11T03:36:49.630Z,9.47
2022-09-11T03:39:16.286Z,9.43
2022-09-11T03:41:42.970Z,9.38
2022-09-11T03:44:09.999Z,9.41
2022-09-11T03:46:36.753Z,9.47
2022-09-11T03:49:03.483Z,9.43
2022-09-11T03:51:31.327Z,9.45
2022-09-11T03:54:01.643Z,9.46
2022-09-11T03:56:31.305Z,9.46
2022-09-11T03:59:00.252Z,9.60
2022-09-11T04:01:27.742Z,9.65
2022-09-11T04:03:54.794Z,9.66
2022-09-11T04:06:21.629Z,9.67
2022-09-11T04:08:48.261Z,9.66
2022-09-11T04:11:15.021Z,9.69
2022-09-11T04:13:42.500Z,9.76
2022-09-11T04:16:17.683Z,9.69
2022-09-11T04:18:46.059Z,9.67
2022-09-11T04:21:15.777Z,9.70
2022-09-11T04:23:42.678Z,9.71
2022-09-11T04:26:16.070Z,9.71
2022-09-11T04:28:43.598Z,9.72
2022-09-11T04:31:10.765Z,9.75
2022-09-11T04:33:37.689Z,9.76
2022-09-11T04:36:06.381Z,9.76
2022-09-11T04:38:33.964Z,9.77
2022-09-11T04:41:02.106Z,9.83
2022-09-11T04:43:31.672Z,9.86
2022-09-11T04:46:02.653Z,9.81
2022-09-11T04:48:29.393Z,9.77
2022-09-11T04:51:06.127Z,9.76
2022-09-11T04:53:33.324Z,9.73
2022-09-11T04:56:10.301Z,9.79
2022-09-11T04:58:37.132Z,9.87
2022-09-11T05:01:13.326Z,9.93
2022-09-11T05:03:40.683Z,9.99
2022-09-11T05:06:08.495Z,10.01
2022-09-11T05:08:35.980Z,10.04
2022-09-11T05:11:06.671Z,10.14
2022-09-11T05:13:36.404Z,10.11
2022-09-11T05:16:15.245Z,10.12
2022-09-11T05:18:43.844Z,10.15
2022-09-11T05:21:16.126Z,10.16
2022-09-11T05:23:46.720Z,10.20
2022-09-11T05:26:24.959Z,10.24
2022-09-11T05:29:00.320Z,10.28
2022-09-11T05:31:29.053Z,10.27
2022-09-11T05:33:56.486Z,10.23
2022-09-11T05:36:24.009Z,10.27
2022-09-11T05:38:50.857Z,10.21
2022-09-11T05:41:17.538Z,10.18
2022-09-11T05:43:44.642Z,10.19
2022-09-11T05:46:16.485Z,10.28
2022-09-11T05:48:43.749Z,10.43
2022-09-11T05:51:21.449Z,10.99
2022-09-11T05:53:52.714Z,11.06
2022-09-11T05:56:22.470Z,11.24
2022-09-11T05:58:51.766Z,11.21
2022-09-11T06:01:21.191Z,11.27
2022-09-11T06:03:49.403Z,11.21
2022-09-11T06:06:18.553Z,11.15
2022-09-11T06:08:46.693Z,11.15
2022-09-11T06:11:15.604Z,11.55
2022-09-11T06:13:44.773Z,12.01
2022-09-11T06:16:22.478Z,12.24
2022-09-11T06:18:51.071Z,12.36
2022-09-11T06:21:20.616Z,12.59
2022-09-11T06:23:49.115Z,12.24
2022-09-11T06:26:18.166Z,12.33
2022-09-11T06:28:44.982Z,12.58
2022-09-11T06:31:16.474Z,12.55
2022-09-11T06:33:44.174Z,12.30
2022-09-11T06:36:30.165Z,12.29
2022-09-11T06:38:58.305Z,12.55
2022-09-11T06:41:26.679Z,12.95
2022-09-11T06:43:53.488Z,13.24
2022-09-11T06:46:22.786Z,13.37
2022-09-11T06:48:50.625Z,13.67
2022-09-11T06:51:20.109Z,13.73
2022-09-11T06:53:47.550Z,13.82
2022-09-11T06:56:19.024Z,13.91
2022-09-11T06:58:46.316Z,13.92
2022-09-11T07:01:15.916Z,14.05
2022-09-11T07:03:47.117Z,14.20
2022-09-11T07:06:15.451Z,14.56
2022-09-11T07:08:42.045Z,14.79
2022-09-11T07:11:10.034Z,14.91
2022-09-11T07:13:38.380Z,14.92
2022-09-11T07:16:08.125Z,14.80
2022-09-11T07:18:36.402Z,14.73
2022-09-11T07:21:16.361Z,14.62
2022-09-11T07:23:46.734Z,14.46
2022-09-11T07:26:13.972Z,14.46
2022-09-11T07:28:40.986Z,14.71
2022-09-11T07:31:10.782Z,14.96
2022-09-11T07:33:45.859Z,15.13
2022-09-11T07:36:14.463Z,15.23
2022-09-11T07:38:42.642Z,15.29
2022-09-11T07:41:10.450Z,15.40
2022-09-11T07:43:37.800Z,15.50
2022-09-11T07:46:05.914Z,15.54
2022-09-11T07:48:32.739Z,15.51
2022-09-11T07:51:04.510Z,15.54
2022-09-11T07:53:42.898Z,15.61
2022-09-11T07:56:16.117Z,15.93
2022-09-11T07:58:43.693Z,16.20
2022-09-11T08:01:13.266Z,16.46
2022-09-11T08:03:40.344Z,16.76
2022-09-11T08:06:09.357Z,17.24
2022-09-11T08:08:37.809Z,17.48
2022-09-11T08:11:07.961Z,17.56
2022-09-11T08:13:35.499Z,17.89
2022-09-11T08:16:02.747Z,18.13
2022-09-11T08:18:30.387Z,18.12
2022-09-11T08:21:12.614Z,17.92
2022-09-11T08:23:42.054Z,17.92
2022-09-11T08:26:17.754Z,17.88
2022-09-11T08:28:45.345Z,17.92
2022-09-11T08:31:13.565Z,17.89
2022-09-11T08:33:40.552Z,17.86
2022-09-11T08:36:10.778Z,17.87
2022-09-11T08:38:38.176Z,17.85
2022-09-11T08:41:32.453Z,17.78
2022-09-11T08:44:11.952Z,17.75
2022-09-11T08:46:49.272Z,17.74
2022-09-11T08:49:19.682Z,17.67
2022-09-11T08:51:48.973Z,17.67
2022-09-11T08:54:37.681Z,17.76
2022-09-11T08:57:33.459Z,17.97
2022-09-11T09:00:00.171Z,18.19
2022-09-11T09:02:56.337Z,18.70
2022-09-11T09:05:46.181Z,18.81
2022-09-11T09:08:40.453Z,18.87
2022-09-11T09:11:39.671Z,19.07
2022-09-11T09:14:25.654Z,19.29
2022-09-11T09:17:25.478Z,19.54
2022-09-11T09:20:02.793Z,19.92
2022-09-11T09:22:45.698Z,19.97
2022-09-11T09:25:15.061Z,19.99
2022-09-11T09:28:06.282Z,19.96
2022-09-11T09:30:43.989Z,19.80
2022-09-11T09:33:20.559Z,19.57
2022-09-11T09:35:48.362Z,19.35
2022-09-11T09:38:26.393Z,19.21
2022-09-11T09:41:27.153Z,19.11
2022-09-11T09:44:20.070Z,19.04
2022-09-11T09:46:51.135Z,19.00
2022-09-11T09:49:32.088Z,18.93
2022-09-11T09:52:04.554Z,18.90
2022-09-11T09:54:36.592Z,18.94
2022-09-11T09:57:10.751Z,19.09
2022-09-11T09:59:45.901Z,19.10
2022-09-11T10:02:12.671Z,18.99
2022-09-11T10:04:39.400Z,19.23
2022-09-11T10:07:10.754Z,19.34
2022-09-11T10:09:55.159Z,19.33
2022-09-11T10:12:27.775Z,19.14
2022-09-11T10:15:02.427Z,19.03
2022-09-11T10:17:32.329Z,18.96
2022-09-11T10:20:23.013Z,18.98
2022-09-11T10:22:51.343Z,18.98
2022-09-11T10:25:19.903Z,19.04
2022-09-11T10:28:09.253Z,18.83
2022-09-11T10:30:39.870Z,18.82
2022-09-11T10:33:22.153Z,18.80
2022-09-11T10:35:55.242Z,19.00
2022-09-11T10:38:45.070Z,19.14
2022-09-11T10:41:19.265Z,19.17
2022-09-11T10:44:03.216Z,19.07
2022-09-11T10:46:42.063Z,19.16
2022-09-11T10:49:17.349Z,19.13
2022-09-11T10:52:02.385Z,19.10
2022-09-11T10:54:31.688Z,18.98
2022-09-11T10:57:13.583Z,18.94
2022-09-11T11:00:17.674Z,18.87
2022-09-11T11:02:50.690Z,18.92
2022-09-11T11:05:27.218Z,18.95
2022-09-11T11:08:21.065Z,18.90
2022-09-11T11:10:53.659Z,18.82
2022-09-11T11:13:51.533Z,18.73
2022-09-11T11:16:36.771Z,18.74
2022-09-11T11:19:50.233Z,18.59
2022-09-11T11:22:26.042Z,18.59
2022-09-11T11:25:15.474Z,18.62
2022-09-11T11:28:19.514Z,18.73
2022-09-11T11:31:07.754Z,18.76
2022-09-11T11:33:55.850Z,18.76
2022-09-11T11:36:39.696Z,18.88
2022-09-11T11:39:18.550Z,18.97
2022-09-11T11:42:05.491Z,19.07
2022-09-11T11:44:35.996Z,19.09
2022-09-11T11:47:06.933Z,19.08
2022-09-11T11:49:52.373Z,19.14
2022-09-11T11:52:31.575Z,19.23
2022-09-11T11:55:17.069Z,19.24
2022-09-11T11:58:12.566Z,19.16
2022-09-11T12:00:46.323Z,19.19
2022-09-11T12:03:27.751Z,19.18
2022-09-11T12:05:54.563Z,19.17
2022-09-11T12:08:22.218Z,19.12
2022-09-11T12:11:02.651Z,19.16
2022-09-11T12:13:36.867Z,19.15
2022-09-11T12:16:11.282Z,18.98
2022-09-11T12:18:38.610Z,18.90
2022-09-11T12:21:41.128Z,18.53
2022-09-11T12:24:07.667Z,18.34
2022-09-11T12:26:34.340Z,18.26
2022-09-11T12:29:16.196Z,18.30
2022-09-11T12:31:51.710Z,18.33
2022-09-11T12:34:24.132Z,18.33
2022-09-11T12:37:07.010Z,18.33
2022-09-11T12:39:40.227Z,18.32
2022-09-11T12:42:25.440Z,18.25
2022-09-11T12:44:52.062Z,18.20
2022-09-11T12:47:23.550Z,18.10
2022-09-11T12:49:58.128Z,18.06
2022-09-11T12:52:54.996Z,18.05
2022-09-11T12:55:39.781Z,18.05
2022-09-11T12:58:21.293Z,17.94
2022-09-11T13:00:51.606Z,17.94
2022-09-11T13:03:28.033Z,18.04
2022-09-11T13:06:00.204Z,18.02
2022-09-11T13:08:32.265Z,18.02
2022-09-11T13:11:36.329Z,18.08
2022-09-11T13:14:03.730Z,18.12
2022-09-11T13:16:34.681Z,18.16
2022-09-11T13:19:07.517Z,18.17
2022-09-11T13:21:38.645Z,18.08
2022-09-11T13:24:21.531Z,18.04
2022-09-11T13:26:55.259Z,17.95
2022-09-11T13:29:27.494Z,17.88
2022-09-11T13:31:57.634Z,17.79
2022-09-11T13:34:28.009Z,17.74
2022-09-11T13:36:57.224Z,17.77
2022-09-11T13:39:26.775Z,17.70
2022-09-11T13:42:04.846Z,17.69
2022-09-11T13:44:44.140Z,17.72
2022-09-11T13:47:22.948Z,17.70
2022-09-11T13:49:56.161Z,17.65
2022-09-11T13:52:25.997Z,17.62
2022-09-11T13:54:57.395Z,17.59
2022-09-11T13:57:26.173Z,17.61
2022-09-11T14:00:00.432Z,17.64
2022-09-11T14:02:40.831Z,17.72
2022-09-11T14:05:13.937Z,17.81
2022-09-11T14:07:43.529Z,17.85
2022-09-11T14:10:29.372Z,17.87
2022-09-11T14:13:24.614Z,17.90
2022-09-11T14:15:55.571Z,17.93
2022-09-11T14:18:42.423Z,17.91
2022-09-11T14:21:19.841Z,17.89
2022-09-11T14:23:51.478Z,17.90
2022-09-11T14:26:21.330Z,17.92
2022-09-11T14:29:00.627Z,17.90
2022-09-11T14:31:42.163Z,17.98
2022-09-11T14:34:08.748Z,18.06
2022-09-11T14:36:41.770Z,18.16
2022-09-11T14:39:24.794Z,18.09
2022-09-11T14:41:53.434Z,18.08
2022-09-11T14:44:21.156Z,18.06
2022-09-11T14:46:48.701Z,18.05
2022-09-11T14:49:16.145Z,18.03
2022-09-11T14:51:43.291Z,18.02
2022-09-11T14:54:16.421Z,17.90
2022-09-11T14:56:43.077Z,17.84
2022-09-11T14:59:10.210Z,17.80
2022-09-11T15:01:37.014Z,17.76
2022-09-11T15:04:03.918Z,17.76
2022-09-11T15:06:31.222Z,17.72
2022-09-11T15:08:59.821Z,17.71
2022-09-11T15:11:26.500Z,17.65
2022-09-11T15:14:14.397Z,17.57
2022-09-11T15:16:42.839Z,17.58
2022-09-11T15:19:10.415Z,17.42
2022-09-11T15:21:37.884Z,17.32
2022-09-11T15:24:05.814Z,17.30
2022-09-11T15:26:34.121Z,17.22
2022-09-11T15:29:00.904Z,17.18
2022-09-11T15:31:30.802Z,17.15
2022-09-11T15:33:57.543Z,17.17
2022-09-11T15:36:25.121Z,17.06
2022-09-11T15:38:54.227Z,17.00
2022-09-11T15:41:25.291Z,16.89
2022-09-11T15:43:52.606Z,16.81
2022-09-11T15:46:21.146Z,16.70
2022-09-11T15:48:48.982Z,16.58
2022-09-11T15:51:20.010Z,16.47
2022-09-11T15:53:47.185Z,16.41
2022-09-11T15:56:16.684Z,16.30
2022-09-11T15:58:45.356Z,16.23
2022-09-11T16:01:19.335Z,16.16
2022-09-11T16:03:50.964Z,16.11
2022-09-11T16:06:18.903Z,16.02
2022-09-11T16:08:46.216Z,15.89
2022-09-11T16:11:14.308Z,15.81
2022-09-11T16:13:41.496Z,15.72
2022-09-11T16:16:08.476Z,15.63
2022-09-11T16:18:39.709Z,15.63
2022-09-11T16:21:07.360Z,15.53
2022-09-11T16:23:35.504Z,15.49
2022-09-11T16:26:05.687Z,15.49
2022-09-11T16:28:37.662Z,15.49
2022-09-11T16:31:06.002Z,15.45
2022-09-11T16:33:36.721Z,15.43
2022-09-11T16:36:07.657Z,15.42
2022-09-11T16:38:37.139Z,15.42
2022-09-11T16:41:14.218Z,15.45
2022-09-11T16:43:42.770Z,15.37
2022-09-11T16:46:09.824Z,15.28
2022-09-11T16:48:39.235Z,15.22
2022-09-11T16:51:06.501Z,15.13
2022-09-11T16:53:35.249Z,15.04
2022-09-11T16:56:11.114Z,14.95
2022-09-11T16:58:38.342Z,14.84
2022-09-11T17:01:06.637Z,14.75
2022-09-11T17:03:37.147Z,14.69
2022-09-11T17:06:06.874Z,14.56
2022-09-11T17:08:34.444Z,14.52
2022-09-11T17:11:02.503Z,14.51
2022-09-11T17:13:29.297Z,14.39
2022-09-11T17:16:02.865Z,14.37
2022-09-11T17:18:29.765Z,14.32
2022-09-11T17:20:58.896Z,14.19
2022-09-11T17:23:26.301Z,14.11
2022-09-11T17:25:53.264Z,14.09
2022-09-11T17:28:20.409Z,14.10
2022-09-11T17:30:47.130Z,13.97
2022-09-11T17:33:14.603Z,13.94
2022-09-11T17:35:42.096Z,13.93
2022-09-11T17:38:09.639Z,13.83
2022-09-11T17:40:37.212Z,13.83
2022-09-11T17:43:04.730Z,13.81
2022-09-11T17:45:31.436Z,13.84
2022-09-11T17:47:58.129Z,13.81
2022-09-11T17:50:24.786Z,13.81
2022-09-11T17:52:51.413Z,13.74
2022-09-11T17:55:18.682Z,13.71
2022-09-11T17:57:52.118Z,13.70
2022-09-11T18:00:18.838Z,13.66
2022-09-11T18:02:46.706Z,13.65
2022-09-11T18:05:13.410Z,13.63
2022-09-11T18:07:40.086Z,13.61
2022-09-11T18:10:08.742Z,13.56
2022-09-11T18:12:35.620Z,13.55
2022-09-11T18:15:02.762Z,13.54
2022-09-11T18:17:29.755Z,13.50
2022-09-11T18:19:56.429Z,13.46
2022-09-11T18:22:23.470Z,13.46
2022-09-11T18:24:50.953Z,13.39
2022-09-11T18:27:19.890Z,13.36
2022-09-11T18:29:47.030Z,13.38
2022-09-11T18:32:13.685Z,13.37
2022-09-11T18:34:40.362Z,13.34
2022-09-11T18:37:07.877Z,13.36
2022-09-11T18:39:34.729Z,13.35
2022-09-11T18:42:01.978Z,13.32
2022-09-11T18:44:28.945Z,13.34
2022-09-11T18:46:55.641Z,13.31
2022-09-11T18:49:22.760Z,13.30
2022-09-11T18:51:49.878Z,13.35
2022-09-11T18:54:21.053Z,13.38
2022-09-11T18:56:49.532Z,13.43
2022-09-11T18:59:16.892Z,13.41
2022-09-11T19:01:44.120Z,13.43
2022-09-11T19:04:12.444Z,13.46
2022-09-11T19:06:39.433Z,13.48
2022-09-11T19:09:10.419Z,13.50
2022-09-11T19:11:37.657Z,13.48
2022-09-11T19:14:07.239Z,13.45
2022-09-11T19:16:34.669Z,13.44
2022-09-11T19:19:02.239Z,13.41
2022-09-11T19:21:29.325Z,13.37
2022-09-11T19:24:00.151Z,13.36
2022-09-11T19:26:33.488Z,13.31
2022-09-11T19:29:00.669Z,13.26
2022-09-11T19:31:29.594Z,13.26
2022-09-11T19:34:00.161Z,13.26
2022-09-11T19:36:29.874Z,13.26
2022-09-11T19:39:00.459Z,13.21
2022-09-11T19:41:33.390Z,13.22
2022-09-11T19:44:02.309Z,13.24
2022-09-11T19:46:31.003Z,13.26
2022-09-11T19:49:00.719Z,13.27
2022-09-11T19:51:30.429Z,13.28
2022-09-11T19:54:00.287Z,13.28
2022-09-11T19:56:27.811Z,13.29
2022-09-11T19:58:55.179Z,13.31
2022-09-11T20:01:24.361Z,13.34
2022-09-11T20:03:53.264Z,13.34
2022-09-11T20:06:23.058Z,13.45
2022-09-11T20:08:59.175Z,13.52
2022-09-11T20:11:35.078Z,13.46
2022-09-11T20:14:01.753Z,13.44
2022-09-11T20:16:28.812Z,13.42
2022-09-11T20:19:00.392Z,13.41
2022-09-11T20:21:27.288Z,13.41
2022-09-11T20:23:55.695Z,13.38
2022-09-11T20:26:28.445Z,13.37
2022-09-11T20:29:00.646Z,13.39
2022-09-11T20:31:30.384Z,13.39
2022-09-11T20:33:57.236Z,13.37
2022-09-11T20:36:24.119Z,13.34
2022-09-11T20:38:52.743Z,13.36
2022-09-11T20:41:21.078Z,13.36
2022-09-11T20:43:47.780Z,13.34
2022-09-11T20:46:14.582Z,13.32
2022-09-11T20:48:41.601Z,13.31
2022-09-11T20:51:11.454Z,13.29
2022-09-11T20:53:41.777Z,13.27
2022-09-11T20:56:11.263Z,13.24
2022-09-11T20:58:39.043Z,13.20
2022-09-11T21:01:07.264Z,13.17
2022-09-11T21:03:34.513Z,13.14
2022-09-11T21:06:08.870Z,13.09
2022-09-11T21:08:35.620Z,13.04
2022-09-11T21:11:06.551Z,13.03
2022-09-11T21:13:38.135Z,13.03
2022-09-11T21:16:10.101Z,12.94
2022-09-11T21:18:38.217Z,12.88
2022-09-11T21:21:05.376Z,12.85
2022-09-11T21:23:32.443Z,12.81
2022-09-11T21:25:59.546Z,12.77
2022-09-11T21:28:26.289Z,12.69
2022-09-11T21:30:52.953Z,12.65
2022-09-11T21:33:19.626Z,12.51
2022-09-11T21:35:52.542Z,12.44
2022-09-11T21:38:24.752Z,12.38
2022-09-11T21:40:52.172Z,12.34
2022-09-11T21:43:18.861Z,12.17
2022-09-11T21:45:46.965Z,12.15
2022-09-11T21:48:14.229Z,12.04
2022-09-11T21:50:41.155Z,12.01
2022-09-11T21:53:09.782Z,12.01
2022-09-11T21:55:40.660Z,11.98
2022-09-11T21:58:07.751Z,11.91
2022-09-11T22:00:42.062Z,11.75
2022-09-11T22:03:11.575Z,11.61
2022-09-11T22:05:43.527Z,11.57
2022-09-11T22:08:16.036Z,11.55
2022-09-11T22:10:48.443Z,11.55
2022-09-11T22:13:16.392Z,11.48
2022-09-11T22:15:44.817Z,11.49
2022-09-11T22:18:12.407Z,11.52
2022-09-11T22:20:41.086Z,11.48
2022-09-11T22:23:08.855Z,11.42
2022-09-11T22:25:37.008Z,11.16
2022-09-11T22:28:04.959Z,11.12
2022-09-11T22:30:32.094Z,11.16
2022-09-11T22:32:59.895Z,11.19
2022-09-11T22:35:27.404Z,11.22
2022-09-11T22:37:54.237Z,11.23
2022-09-11T22:40:20.887Z,11.25
2022-09-11T22:42:47.684Z,11.16
2022-09-11T22:45:14.426Z,10.99
2022-09-11T22:47:41.053Z,10.94
2022-09-11T22:50:08.167Z,10.93
2022-09-11T22:52:34.892Z,10.94
2022-09-11T22:55:01.580Z,10.97
2022-09-11T22:57:29.305Z,10.94
2022-09-11T22:59:56.241Z,10.95
2022-09-11T23:02:23.165Z,11.00
2022-09-11T23:05:08.395Z,11.04
2022-09-11T23:07:34.958Z,10.98
2022-09-11T23:10:01.998Z,10.96
2022-09-11T23:12:28.640Z,10.97
2022-09-11T23:14:56.152Z,10.99
2022-09-11T23:17:22.843Z,10.98
2022-09-11T23:19:49.455Z,11.00
2022-09-11T23:22:16.175Z,10.79
2022-09-11T23:24:42.763Z,10.69
2022-09-11T23:27:09.503Z,10.69
2022-09-11T23:29:36.210Z,10.70
2022-09-11T23:32:03.147Z,10.71
2022-09-11T23:34:29.843Z,10.67
2022-09-11T23:36:56.508Z,10.62
2022-09-11T23:39:23.117Z,10.55
2022-09-11T23:41:49.790Z,10.54
2022-09-11T23:44:16.533Z,10.55
2022-09-11T23:46:43.815Z,10.49
2022-09-11T23:49:11.806Z,10.48
2022-09-11T23:51:38.930Z,10.46
2022-09-11T23:54:05.807Z,10.53
2022-09-11T23:56:32.433Z,10.51
2022-09-11T23:58:59.205Z,10.53
